sensor_id;sensor_type;location;lat;lon;timestamp;P1;durP1;ratioP1;P2;durP2;ratioP2
70953;SDS011;58618;47.490;8.736;2023-10-19T00:01:14;26.83;;;16.85;;
70953;SDS011;58618;47.490;8.736;2023-10-19T00:04:01;27.73;;;16.30;;
70953;SDS011;58618;47.490;8.736;2023-10-19T00:06:51;26.40;;;15.68;;
70953;SDS011;58618;47.490;8.736;2023-10-19T00:09:38;28.90;;;17.02;;
70953;SDS011;58618;47.490;8.736;2023-10-19T00:12:26;25.63;;;16.92;;
70953;SDS011;58618;47.490;8.736;2023-10-19T00:15:13;27.63;;;17.00;;
70953;SDS011;58618;47.490;8.736;2023-10-19T00:18:01;26.40;;;15.90;;
70953;SDS011;58618;47.490;8.736;2023-10-19T00:21:06;25.98;;;16.08;;
70953;SDS011;58618;47.490;8.736;2023-10-19T00:23:58;28.80;;;16.48;;
70953;SDS011;58618;47.490;8.736;2023-10-19T00:26:50;26.48;;;15.65;;
70953;SDS011;58618;47.490;8.736;2023-10-19T00:29:39;24.08;;;15.88;;
70953;SDS011;58618;47.490;8.736;2023-10-19T00:32:28;27.27;;;15.93;;
70953;SDS011;58618;47.490;8.736;2023-10-19T00:35:16;24.60;;;15.52;;
70953;SDS011;58618;47.490;8.736;2023-10-19T00:38:13;26.67;;;16.02;;
70953;SDS011;58618;47.490;8.736;2023-10-19T00:41:29;25.98;;;16.27;;
70953;SDS011;58618;47.490;8.736;2023-10-19T00:44:17;27.60;;;16.25;;
70953;SDS011;58618;47.490;8.736;2023-10-19T00:47:08;26.73;;;15.63;;
70953;SDS011;58618;47.490;8.736;2023-10-19T00:49:59;26.42;;;16.10;;
70953;SDS011;58618;47.490;8.736;2023-10-19T00:52:49;30.17;;;16.10;;
70953;SDS011;58618;47.490;8.736;2023-10-19T00:55:36;28.05;;;16.40;;
70953;SDS011;58618;47.490;8.736;2023-10-19T00:58:26;26.90;;;16.33;;
70953;SDS011;58618;47.490;8.736;2023-10-19T01:01:16;31.37;;;16.57;;
70953;SDS011;58618;47.490;8.736;2023-10-19T01:04:05;26.48;;;15.90;;
70953;SDS011;58618;47.490;8.736;2023-10-19T01:06:53;28.13;;;16.00;;
70953;SDS011;58618;47.490;8.736;2023-10-19T01:09:51;26.05;;;15.30;;
70953;SDS011;58618;47.490;8.736;2023-10-19T01:12:39;28.27;;;16.85;;
70953;SDS011;58618;47.490;8.736;2023-10-19T01:15:28;31.90;;;17.57;;
70953;SDS011;58618;47.490;8.736;2023-10-19T01:18:16;33.00;;;19.10;;
70953;SDS011;58618;47.490;8.736;2023-10-19T01:21:04;34.13;;;18.58;;
70953;SDS011;58618;47.490;8.736;2023-10-19T01:23:54;33.15;;;19.20;;
70953;SDS011;58618;47.490;8.736;2023-10-19T01:26:42;30.33;;;17.83;;
70953;SDS011;58618;47.490;8.736;2023-10-19T01:29:29;29.33;;;17.50;;
70953;SDS011;58618;47.490;8.736;2023-10-19T01:32:17;30.00;;;16.25;;
70953;SDS011;58618;47.490;8.736;2023-10-19T01:35:04;26.13;;;16.25;;
70953;SDS011;58618;47.490;8.736;2023-10-19T01:37:52;25.08;;;16.13;;
70953;SDS011;58618;47.490;8.736;2023-10-19T01:40:41;27.13;;;16.10;;
70953;SDS011;58618;47.490;8.736;2023-10-19T01:43:32;27.60;;;16.77;;
70953;SDS011;58618;47.490;8.736;2023-10-19T01:46:18;27.52;;;15.93;;
70953;SDS011;58618;47.490;8.736;2023-10-19T01:49:10;27.58;;;16.90;;
70953;SDS011;58618;47.490;8.736;2023-10-19T01:51:58;24.77;;;15.30;;
70953;SDS011;58618;47.490;8.736;2023-10-19T01:54:46;29.10;;;16.42;;
70953;SDS011;58618;47.490;8.736;2023-10-19T01:57:34;32.40;;;17.13;;
70953;SDS011;58618;47.490;8.736;2023-10-19T02:00:21;28.02;;;16.55;;
70953;SDS011;58618;47.490;8.736;2023-10-19T02:03:08;26.45;;;17.27;;
70953;SDS011;58618;47.490;8.736;2023-10-19T02:05:59;29.75;;;16.65;;
70953;SDS011;58618;47.490;8.736;2023-10-19T02:08:46;25.77;;;15.35;;
70953;SDS011;58618;47.490;8.736;2023-10-19T02:11:36;24.60;;;15.97;;
70953;SDS011;58618;47.490;8.736;2023-10-19T02:14:28;26.75;;;16.23;;
70953;SDS011;58618;47.490;8.736;2023-10-19T02:17:16;27.55;;;16.55;;
70953;SDS011;58618;47.490;8.736;2023-10-19T02:20:04;25.67;;;16.00;;
70953;SDS011;58618;47.490;8.736;2023-10-19T02:23:10;26.83;;;16.05;;
70953;SDS011;58618;47.490;8.736;2023-10-19T02:25:58;26.60;;;15.90;;
70953;SDS011;58618;47.490;8.736;2023-10-19T02:28:45;28.48;;;15.77;;
70953;SDS011;58618;47.490;8.736;2023-10-19T02:31:34;28.65;;;16.55;;
70953;SDS011;58618;47.490;8.736;2023-10-19T02:34:23;32.47;;;17.40;;
70953;SDS011;58618;47.490;8.736;2023-10-19T02:37:11;35.53;;;20.58;;
70953;SDS011;58618;47.490;8.736;2023-10-19T02:39:57;34.17;;;19.40;;
70953;SDS011;58618;47.490;8.736;2023-10-19T02:42:46;29.13;;;17.20;;
70953;SDS011;58618;47.490;8.736;2023-10-19T02:45:34;30.83;;;18.05;;
70953;SDS011;58618;47.490;8.736;2023-10-19T02:48:24;31.25;;;17.73;;
70953;SDS011;58618;47.490;8.736;2023-10-19T02:51:11;31.15;;;17.83;;
70953;SDS011;58618;47.490;8.736;2023-10-19T02:53:58;28.97;;;17.20;;
70953;SDS011;58618;47.490;8.736;2023-10-19T02:56:48;31.92;;;18.15;;
70953;SDS011;58618;47.490;8.736;2023-10-19T02:59:37;30.38;;;18.10;;
70953;SDS011;58618;47.490;8.736;2023-10-19T03:02:24;34.20;;;18.05;;
70953;SDS011;58618;47.490;8.736;2023-10-19T03:05:14;33.75;;;18.15;;
70953;SDS011;58618;47.490;8.736;2023-10-19T03:08:01;27.57;;;17.00;;
70953;SDS011;58618;47.490;8.736;2023-10-19T03:10:51;31.50;;;17.90;;
70953;SDS011;58618;47.490;8.736;2023-10-19T03:13:49;29.38;;;18.10;;
70953;SDS011;58618;47.490;8.736;2023-10-19T03:16:37;28.02;;;16.55;;
70953;SDS011;58618;47.490;8.736;2023-10-19T03:19:27;26.45;;;15.82;;
70953;SDS011;58618;47.490;8.736;2023-10-19T03:22:16;24.07;;;15.27;;
70953;SDS011;58618;47.490;8.736;2023-10-19T03:25:06;24.45;;;15.32;;
70953;SDS011;58618;47.490;8.736;2023-10-19T03:28:21;23.52;;;14.98;;
70953;SDS011;58618;47.490;8.736;2023-10-19T03:31:11;23.60;;;14.73;;
70953;SDS011;58618;47.490;8.736;2023-10-19T03:34:03;25.83;;;15.30;;
70953;SDS011;58618;47.490;8.736;2023-10-19T03:36:52;24.90;;;15.67;;
70953;SDS011;58618;47.490;8.736;2023-10-19T03:39:41;27.50;;;15.50;;
70953;SDS011;58618;47.490;8.736;2023-10-19T03:42:31;25.38;;;14.63;;
70953;SDS011;58618;47.490;8.736;2023-10-19T03:45:19;28.75;;;16.58;;
70953;SDS011;58618;47.490;8.736;2023-10-19T03:48:09;25.63;;;16.27;;
70953;SDS011;58618;47.490;8.736;2023-10-19T03:50:57;24.50;;;15.27;;
70953;SDS011;58618;47.490;8.736;2023-10-19T03:53:48;24.55;;;15.55;;
70953;SDS011;58618;47.490;8.736;2023-10-19T03:56:42;25.67;;;16.20;;
70953;SDS011;58618;47.490;8.736;2023-10-19T03:59:30;27.50;;;16.42;;
70953;SDS011;58618;47.490;8.736;2023-10-19T04:02:20;27.67;;;16.38;;
70953;SDS011;58618;47.490;8.736;2023-10-19T04:05:07;25.27;;;15.17;;
70953;SDS011;58618;47.490;8.736;2023-10-19T04:07:56;25.90;;;15.43;;
70953;SDS011;58618;47.490;8.736;2023-10-19T04:10:44;28.73;;;15.82;;
70953;SDS011;58618;47.490;8.736;2023-10-19T04:13:34;27.58;;;17.38;;
70953;SDS011;58618;47.490;8.736;2023-10-19T04:16:22;26.35;;;16.00;;
70953;SDS011;58618;47.490;8.736;2023-10-19T04:19:09;24.90;;;15.00;;
70953;SDS011;58618;47.490;8.736;2023-10-19T04:21:57;26.90;;;15.70;;
70953;SDS011;58618;47.490;8.736;2023-10-19T04:24:44;25.70;;;15.68;;
70953;SDS011;58618;47.490;8.736;2023-10-19T04:27:31;29.77;;;16.27;;
70953;SDS011;58618;47.490;8.736;2023-10-19T04:30:22;27.42;;;15.57;;
70953;SDS011;58618;47.490;8.736;2023-10-19T04:33:10;25.47;;;15.73;;
70953;SDS011;58618;47.490;8.736;2023-10-19T04:35:58;26.33;;;15.75;;
70953;SDS011;58618;47.490;8.736;2023-10-19T04:38:46;29.08;;;16.52;;
70953;SDS011;58618;47.490;8.736;2023-10-19T04:41:33;27.55;;;15.90;;
70953;SDS011;58618;47.490;8.736;2023-10-19T04:44:21;28.17;;;16.67;;
70953;SDS011;58618;47.490;8.736;2023-10-19T04:47:10;30.20;;;17.00;;
70953;SDS011;58618;47.490;8.736;2023-10-19T04:49:58;27.25;;;16.75;;
70953;SDS011;58618;47.490;8.736;2023-10-19T04:52:45;27.83;;;16.20;;
70953;SDS011;58618;47.490;8.736;2023-10-19T04:55:33;28.67;;;16.33;;
70953;SDS011;58618;47.490;8.736;2023-10-19T04:58:20;25.63;;;15.68;;
70953;SDS011;58618;47.490;8.736;2023-10-19T05:01:08;29.00;;;16.10;;
70953;SDS011;58618;47.490;8.736;2023-10-19T05:03:58;29.80;;;16.75;;
70953;SDS011;58618;47.490;8.736;2023-10-19T05:06:46;27.90;;;15.80;;
70953;SDS011;58618;47.490;8.736;2023-10-19T05:09:33;26.67;;;16.10;;
70953;SDS011;58618;47.490;8.736;2023-10-19T05:12:24;28.77;;;15.75;;
70953;SDS011;58618;47.490;8.736;2023-10-19T05:15:11;28.30;;;15.90;;
70953;SDS011;58618;47.490;8.736;2023-10-19T05:17:59;27.70;;;15.23;;
70953;SDS011;58618;47.490;8.736;2023-10-19T05:20:48;26.58;;;15.95;;
70953;SDS011;58618;47.490;8.736;2023-10-19T05:23:41;25.45;;;15.13;;
70953;SDS011;58618;47.490;8.736;2023-10-19T05:26:28;29.63;;;16.55;;
70953;SDS011;58618;47.490;8.736;2023-10-19T05:29:16;25.47;;;15.83;;
70953;SDS011;58618;47.490;8.736;2023-10-19T05:32:04;27.90;;;16.27;;
70953;SDS011;58618;47.490;8.736;2023-10-19T05:34:52;27.88;;;16.85;;
70953;SDS011;58618;47.490;8.736;2023-10-19T05:37:41;28.65;;;17.85;;
70953;SDS011;58618;47.490;8.736;2023-10-19T05:40:28;28.63;;;16.30;;
70953;SDS011;58618;47.490;8.736;2023-10-19T05:43:16;27.90;;;16.97;;
70953;SDS011;58618;47.490;8.736;2023-10-19T05:46:04;29.25;;;16.48;;
70953;SDS011;58618;47.490;8.736;2023-10-19T05:48:51;25.60;;;16.17;;
70953;SDS011;58618;47.490;8.736;2023-10-19T05:51:42;30.05;;;16.75;;
70953;SDS011;58618;47.490;8.736;2023-10-19T05:54:31;27.38;;;16.77;;
70953;SDS011;58618;47.490;8.736;2023-10-19T05:57:18;28.80;;;16.20;;
70953;SDS011;58618;47.490;8.736;2023-10-19T06:00:06;26.38;;;16.27;;
70953;SDS011;58618;47.490;8.736;2023-10-19T06:02:58;27.52;;;16.38;;
70953;SDS011;58618;47.490;8.736;2023-10-19T06:05:45;28.45;;;16.88;;
70953;SDS011;58618;47.490;8.736;2023-10-19T06:08:32;27.25;;;15.98;;
70953;SDS011;58618;47.490;8.736;2023-10-19T06:11:21;26.47;;;16.00;;
70953;SDS011;58618;47.490;8.736;2023-10-19T06:14:09;24.73;;;15.73;;
70953;SDS011;58618;47.490;8.736;2023-10-19T06:16:57;27.30;;;16.27;;
70953;SDS011;58618;47.490;8.736;2023-10-19T06:19:44;27.20;;;15.88;;
70953;SDS011;58618;47.490;8.736;2023-10-19T06:22:32;26.50;;;15.88;;
70953;SDS011;58618;47.490;8.736;2023-10-19T06:25:19;26.63;;;15.37;;
70953;SDS011;58618;47.490;8.736;2023-10-19T06:28:09;28.00;;;16.40;;
70953;SDS011;58618;47.490;8.736;2023-10-19T06:30:57;27.23;;;16.63;;
70953;SDS011;58618;47.490;8.736;2023-10-19T06:33:44;26.83;;;16.60;;
70953;SDS011;58618;47.490;8.736;2023-10-19T06:36:32;26.67;;;16.20;;
70953;SDS011;58618;47.490;8.736;2023-10-19T06:39:19;28.10;;;16.13;;
70953;SDS011;58618;47.490;8.736;2023-10-19T06:42:07;25.35;;;15.90;;
70953;SDS011;58618;47.490;8.736;2023-10-19T06:45:01;28.65;;;16.27;;
70953;SDS011;58618;47.490;8.736;2023-10-19T06:47:49;23.27;;;16.25;;
70953;SDS011;58618;47.490;8.736;2023-10-19T06:50:36;31.52;;;18.05;;
70953;SDS011;58618;47.490;8.736;2023-10-19T06:53:24;26.03;;;17.80;;
70953;SDS011;58618;47.490;8.736;2023-10-19T06:56:11;24.92;;;16.45;;
70953;SDS011;58618;47.490;8.736;2023-10-19T06:58:59;28.88;;;16.17;;
70953;SDS011;58618;47.490;8.736;2023-10-19T07:01:47;25.08;;;16.10;;
70953;SDS011;58618;47.490;8.736;2023-10-19T07:04:35;23.73;;;15.82;;
70953;SDS011;58618;47.490;8.736;2023-10-19T07:07:22;22.47;;;15.43;;
70953;SDS011;58618;47.490;8.736;2023-10-19T07:10:11;25.85;;;16.17;;
70953;SDS011;58618;47.490;8.736;2023-10-19T07:12:59;23.90;;;16.73;;
70953;SDS011;58618;47.490;8.736;2023-10-19T07:15:47;27.05;;;16.67;;
70953;SDS011;58618;47.490;8.736;2023-10-19T07:18:36;27.17;;;16.08;;
70953;SDS011;58618;47.490;8.736;2023-10-19T07:21:25;23.43;;;15.60;;
70953;SDS011;58618;47.490;8.736;2023-10-19T07:24:15;25.98;;;15.77;;
70953;SDS011;58618;47.490;8.736;2023-10-19T07:27:04;26.02;;;15.73;;
70953;SDS011;58618;47.490;8.736;2023-10-19T07:29:53;24.25;;;16.20;;
70953;SDS011;58618;47.490;8.736;2023-10-19T07:32:42;23.08;;;16.25;;
70953;SDS011;58618;47.490;8.736;2023-10-19T07:35:33;25.00;;;16.63;;
70953;SDS011;58618;47.490;8.736;2023-10-19T07:38:23;27.40;;;16.40;;
70953;SDS011;58618;47.490;8.736;2023-10-19T07:41:11;26.60;;;16.13;;
70953;SDS011;58618;47.490;8.736;2023-10-19T07:43:58;24.88;;;15.45;;
70953;SDS011;58618;47.490;8.736;2023-10-19T07:46:46;20.15;;;15.00;;
70953;SDS011;58618;47.490;8.736;2023-10-19T07:49:33;22.70;;;16.03;;
70953;SDS011;58618;47.490;8.736;2023-10-19T07:52:23;24.27;;;15.20;;
70953;SDS011;58618;47.490;8.736;2023-10-19T07:55:11;26.08;;;16.10;;
70953;SDS011;58618;47.490;8.736;2023-10-19T07:57:58;23.00;;;15.05;;
70953;SDS011;58618;47.490;8.736;2023-10-19T08:00:47;22.17;;;15.38;;
70953;SDS011;58618;47.490;8.736;2023-10-19T08:03:34;24.07;;;15.23;;
70953;SDS011;58618;47.490;8.736;2023-10-19T08:06:22;24.27;;;15.52;;
70953;SDS011;58618;47.490;8.736;2023-10-19T08:09:10;26.10;;;16.20;;
70953;SDS011;58618;47.490;8.736;2023-10-19T08:11:58;21.05;;;14.48;;
70953;SDS011;58618;47.490;8.736;2023-10-19T08:14:45;20.75;;;14.27;;
70953;SDS011;58618;47.490;8.736;2023-10-19T08:17:33;21.37;;;14.63;;
70953;SDS011;58618;47.490;8.736;2023-10-19T08:20:20;22.65;;;15.27;;
70953;SDS011;58618;47.490;8.736;2023-10-19T08:23:16;22.60;;;15.45;;
70953;SDS011;58618;47.490;8.736;2023-10-19T08:26:10;22.23;;;14.50;;
70953;SDS011;58618;47.490;8.736;2023-10-19T08:28:58;20.83;;;14.27;;
70953;SDS011;58618;47.490;8.736;2023-10-19T08:31:45;21.60;;;14.57;;
70953;SDS011;58618;47.490;8.736;2023-10-19T08:34:33;20.98;;;14.52;;
70953;SDS011;58618;47.490;8.736;2023-10-19T08:37:22;21.40;;;14.85;;
70953;SDS011;58618;47.490;8.736;2023-10-19T08:40:09;24.80;;;14.82;;
70953;SDS011;58618;47.490;8.736;2023-10-19T08:43:01;22.15;;;15.32;;
70953;SDS011;58618;47.490;8.736;2023-10-19T08:45:50;19.00;;;14.13;;
70953;SDS011;58618;47.490;8.736;2023-10-19T08:48:37;20.50;;;12.98;;
70953;SDS011;58618;47.490;8.736;2023-10-19T08:51:25;21.02;;;14.25;;
70953;SDS011;58618;47.490;8.736;2023-10-19T08:54:12;20.27;;;13.90;;
70953;SDS011;58618;47.490;8.736;2023-10-19T08:57:00;20.85;;;14.55;;
70953;SDS011;58618;47.490;8.736;2023-10-19T08:59:49;18.27;;;13.27;;
70953;SDS011;58618;47.490;8.736;2023-10-19T09:02:37;20.92;;;14.93;;
70953;SDS011;58618;47.490;8.736;2023-10-19T09:05:24;18.63;;;13.32;;
70953;SDS011;58618;47.490;8.736;2023-10-19T09:08:13;22.88;;;14.68;;
70953;SDS011;58618;47.490;8.736;2023-10-19T09:11:02;20.00;;;14.55;;
70953;SDS011;58618;47.490;8.736;2023-10-19T09:13:53;24.40;;;14.93;;
70953;SDS011;58618;47.490;8.736;2023-10-19T09:16:54;21.75;;;14.00;;
70953;SDS011;58618;47.490;8.736;2023-10-19T09:19:43;18.65;;;14.88;;
70953;SDS011;58618;47.490;8.736;2023-10-19T09:22:34;19.60;;;13.60;;
70953;SDS011;58618;47.490;8.736;2023-10-19T09:25:30;19.15;;;13.82;;
70953;SDS011;58618;47.490;8.736;2023-10-19T09:28:18;21.53;;;14.47;;
70953;SDS011;58618;47.490;8.736;2023-10-19T09:31:05;19.42;;;13.98;;
70953;SDS011;58618;47.490;8.736;2023-10-19T09:33:56;22.30;;;14.65;;
70953;SDS011;58618;47.490;8.736;2023-10-19T09:36:45;25.08;;;14.50;;
70953;SDS011;58618;47.490;8.736;2023-10-19T09:39:32;20.15;;;14.85;;
70953;SDS011;58618;47.490;8.736;2023-10-19T09:42:21;20.43;;;14.03;;
70953;SDS011;58618;47.490;8.736;2023-10-19T09:45:12;22.45;;;14.05;;
70953;SDS011;58618;47.490;8.736;2023-10-19T09:48:05;19.70;;;13.73;;
70953;SDS011;58618;47.490;8.736;2023-10-19T09:50:56;19.65;;;12.32;;
70953;SDS011;58618;47.490;8.736;2023-10-19T09:53:45;18.27;;;12.88;;
70953;SDS011;58618;47.490;8.736;2023-10-19T09:56:38;18.03;;;12.73;;
70953;SDS011;58618;47.490;8.736;2023-10-19T09:59:31;18.45;;;13.13;;
70953;SDS011;58618;47.490;8.736;2023-10-19T10:02:24;16.92;;;12.57;;
70953;SDS011;58618;47.490;8.736;2023-10-19T10:08:36;21.15;;;12.18;;
70953;SDS011;58618;47.490;8.736;2023-10-19T10:11:24;19.13;;;12.43;;
70953;SDS011;58618;47.490;8.736;2023-10-19T10:14:19;17.45;;;13.27;;
70953;SDS011;58618;47.490;8.736;2023-10-19T10:17:10;17.10;;;13.15;;
70953;SDS011;58618;47.490;8.736;2023-10-19T10:23:18;20.98;;;12.95;;
70953;SDS011;58618;47.490;8.736;2023-10-19T10:26:12;17.10;;;12.77;;
70953;SDS011;58618;47.490;8.736;2023-10-19T10:29:07;18.17;;;12.90;;
70953;SDS011;58618;47.490;8.736;2023-10-19T10:31:57;16.80;;;11.95;;
70953;SDS011;58618;47.490;8.736;2023-10-19T10:34:46;17.27;;;12.70;;
70953;SDS011;58618;47.490;8.736;2023-10-19T10:37:36;16.08;;;11.70;;
70953;SDS011;58618;47.490;8.736;2023-10-19T10:40:24;17.27;;;12.30;;
70953;SDS011;58618;47.490;8.736;2023-10-19T10:43:15;17.25;;;12.63;;
70953;SDS011;58618;47.490;8.736;2023-10-19T10:46:03;16.92;;;12.85;;
70953;SDS011;58618;47.490;8.736;2023-10-19T10:48:51;18.15;;;13.07;;
70953;SDS011;58618;47.490;8.736;2023-10-19T10:51:39;18.40;;;13.13;;
70953;SDS011;58618;47.490;8.736;2023-10-19T10:54:27;18.30;;;13.47;;
70953;SDS011;58618;47.490;8.736;2023-10-19T10:57:15;18.42;;;14.15;;
70953;SDS011;58618;47.490;8.736;2023-10-19T11:00:04;17.58;;;13.38;;
70953;SDS011;58618;47.490;8.736;2023-10-19T11:03:00;18.23;;;12.85;;
70953;SDS011;58618;47.490;8.736;2023-10-19T11:05:49;17.17;;;12.90;;
70953;SDS011;58618;47.490;8.736;2023-10-19T11:08:37;18.13;;;13.80;;
70953;SDS011;58618;47.490;8.736;2023-10-19T11:11:25;19.25;;;14.00;;
70953;SDS011;58618;47.490;8.736;2023-10-19T11:14:12;20.35;;;13.95;;
70953;SDS011;58618;47.490;8.736;2023-10-19T11:17:12;19.25;;;13.70;;
70953;SDS011;58618;47.490;8.736;2023-10-19T11:20:01;17.17;;;13.60;;
70953;SDS011;58618;47.490;8.736;2023-10-19T11:22:51;19.93;;;13.07;;
70953;SDS011;58618;47.490;8.736;2023-10-19T11:25:41;20.08;;;13.50;;
70953;SDS011;58618;47.490;8.736;2023-10-19T11:28:29;17.65;;;12.85;;
70953;SDS011;58618;47.490;8.736;2023-10-19T11:31:18;18.13;;;12.57;;
70953;SDS011;58618;47.490;8.736;2023-10-19T11:34:09;15.70;;;12.55;;
70953;SDS011;58618;47.490;8.736;2023-10-19T11:36:56;14.93;;;11.73;;
70953;SDS011;58618;47.490;8.736;2023-10-19T11:39:45;16.83;;;11.80;;
70953;SDS011;58618;47.490;8.736;2023-10-19T11:42:32;18.55;;;12.45;;
70953;SDS011;58618;47.490;8.736;2023-10-19T11:45:19;17.60;;;12.15;;
70953;SDS011;58618;47.490;8.736;2023-10-19T11:48:07;16.95;;;11.00;;
70953;SDS011;58618;47.490;8.736;2023-10-19T11:50:56;18.83;;;10.77;;
70953;SDS011;58618;47.490;8.736;2023-10-19T11:53:43;12.85;;;9.65;;
70953;SDS011;58618;47.490;8.736;2023-10-19T11:56:31;14.02;;;10.52;;
70953;SDS011;58618;47.490;8.736;2023-10-19T11:59:19;15.70;;;10.70;;
70953;SDS011;58618;47.490;8.736;2023-10-19T12:02:06;15.07;;;11.00;;
70953;SDS011;58618;47.490;8.736;2023-10-19T12:04:55;14.93;;;10.53;;
70953;SDS011;58618;47.490;8.736;2023-10-19T12:07:44;16.55;;;10.85;;
70953;SDS011;58618;47.490;8.736;2023-10-19T12:10:31;17.02;;;11.30;;
70953;SDS011;58618;47.490;8.736;2023-10-19T12:13:21;14.38;;;10.32;;
70953;SDS011;58618;47.490;8.736;2023-10-19T12:16:08;16.05;;;10.52;;
70953;SDS011;58618;47.490;8.736;2023-10-19T12:18:58;13.97;;;10.10;;
70953;SDS011;58618;47.490;8.736;2023-10-19T12:21:45;15.23;;;11.13;;
70953;SDS011;58618;47.490;8.736;2023-10-19T12:24:36;14.40;;;11.02;;
70953;SDS011;58618;47.490;8.736;2023-10-19T12:27:24;14.55;;;10.70;;
70953;SDS011;58618;47.490;8.736;2023-10-19T12:30:12;14.20;;;10.52;;
70953;SDS011;58618;47.490;8.736;2023-10-19T12:33:06;13.33;;;9.93;;
70953;SDS011;58618;47.490;8.736;2023-10-19T12:35:57;13.82;;;10.05;;
70953;SDS011;58618;47.490;8.736;2023-10-19T12:38:45;13.70;;;9.63;;
70953;SDS011;58618;47.490;8.736;2023-10-19T12:41:34;12.60;;;9.82;;
70953;SDS011;58618;47.490;8.736;2023-10-19T12:44:21;12.90;;;9.32;;
70953;SDS011;58618;47.490;8.736;2023-10-19T12:47:09;17.13;;;10.77;;
70953;SDS011;58618;47.490;8.736;2023-10-19T12:49:58;15.73;;;9.85;;
70953;SDS011;58618;47.490;8.736;2023-10-19T12:52:46;15.38;;;10.05;;
70953;SDS011;58618;47.490;8.736;2023-10-19T12:55:33;12.70;;;9.52;;
70953;SDS011;58618;47.490;8.736;2023-10-19T12:58:24;12.32;;;9.52;;
70953;SDS011;58618;47.490;8.736;2023-10-19T13:01:13;13.63;;;9.93;;
70953;SDS011;58618;47.490;8.736;2023-10-19T13:04:03;17.05;;;10.50;;
70953;SDS011;58618;47.490;8.736;2023-10-19T13:06:59;17.73;;;10.00;;
70953;SDS011;58618;47.490;8.736;2023-10-19T13:09:48;14.68;;;10.10;;
70953;SDS011;58618;47.490;8.736;2023-10-19T13:12:36;15.77;;;10.20;;
70953;SDS011;58618;47.490;8.736;2023-10-19T13:15:25;16.10;;;10.80;;
70953;SDS011;58618;47.490;8.736;2023-10-19T13:18:16;17.42;;;10.13;;
70953;SDS011;58618;47.490;8.736;2023-10-19T13:21:07;13.98;;;10.38;;
70953;SDS011;58618;47.490;8.736;2023-10-19T13:23:57;13.55;;;10.45;;
70953;SDS011;58618;47.490;8.736;2023-10-19T13:26:45;15.18;;;11.00;;
70953;SDS011;58618;47.490;8.736;2023-10-19T13:29:32;16.07;;;10.60;;
70953;SDS011;58618;47.490;8.736;2023-10-19T13:32:24;14.88;;;10.35;;
70953;SDS011;58618;47.490;8.736;2023-10-19T13:35:15;15.52;;;10.82;;
70953;SDS011;58618;47.490;8.736;2023-10-19T13:38:04;15.32;;;10.52;;
70953;SDS011;58618;47.490;8.736;2023-10-19T13:40:51;16.63;;;10.65;;
70953;SDS011;58618;47.490;8.736;2023-10-19T13:43:39;15.63;;;11.10;;
70953;SDS011;58618;47.490;8.736;2023-10-19T13:46:28;15.88;;;11.18;;
70953;SDS011;58618;47.490;8.736;2023-10-19T13:49:17;15.50;;;10.50;;
70953;SDS011;58618;47.490;8.736;2023-10-19T13:52:05;15.13;;;11.23;;
70953;SDS011;58618;47.490;8.736;2023-10-19T13:54:54;17.20;;;11.57;;
70953;SDS011;58618;47.490;8.736;2023-10-19T13:57:42;15.53;;;10.90;;
70953;SDS011;58618;47.490;8.736;2023-10-19T14:00:29;15.48;;;10.82;;
70953;SDS011;58618;47.490;8.736;2023-10-19T14:03:21;14.20;;;10.85;;
70953;SDS011;58618;47.490;8.736;2023-10-19T14:06:12;14.70;;;10.75;;
70953;SDS011;58618;47.490;8.736;2023-10-19T14:09:00;14.25;;;9.80;;
70953;SDS011;58618;47.490;8.736;2023-10-19T14:11:47;19.50;;;10.47;;
70953;SDS011;58618;47.490;8.736;2023-10-19T14:14:35;12.35;;;9.60;;
70953;SDS011;58618;47.490;8.736;2023-10-19T14:17:22;13.57;;;9.93;;
70953;SDS011;58618;47.490;8.736;2023-10-19T14:20:09;17.17;;;10.65;;
70953;SDS011;58618;47.490;8.736;2023-10-19T14:23:00;16.15;;;10.13;;
70953;SDS011;58618;47.490;8.736;2023-10-19T14:25:50;13.17;;;9.23;;
70953;SDS011;58618;47.490;8.736;2023-10-19T14:28:37;14.30;;;11.13;;
70953;SDS011;58618;47.490;8.736;2023-10-19T14:31:26;14.02;;;10.88;;
70953;SDS011;58618;47.490;8.736;2023-10-19T14:34:14;15.18;;;11.20;;
70953;SDS011;58618;47.490;8.736;2023-10-19T14:37:01;15.15;;;10.98;;
70953;SDS011;58618;47.490;8.736;2023-10-19T14:39:50;16.60;;;11.00;;
70953;SDS011;58618;47.490;8.736;2023-10-19T14:42:38;15.68;;;10.63;;
70953;SDS011;58618;47.490;8.736;2023-10-19T14:45:26;15.38;;;10.65;;
70953;SDS011;58618;47.490;8.736;2023-10-19T14:48:14;13.75;;;9.57;;
70953;SDS011;58618;47.490;8.736;2023-10-19T14:51:04;18.08;;;9.43;;
70953;SDS011;58618;47.490;8.736;2023-10-19T14:53:53;11.37;;;8.67;;
70953;SDS011;58618;47.490;8.736;2023-10-19T14:56:41;12.15;;;8.55;;
70953;SDS011;58618;47.490;8.736;2023-10-19T14:59:29;12.93;;;8.90;;
70953;SDS011;58618;47.490;8.736;2023-10-19T15:02:19;14.68;;;9.30;;
70953;SDS011;58618;47.490;8.736;2023-10-19T15:05:09;12.25;;;8.35;;
70953;SDS011;58618;47.490;8.736;2023-10-19T15:07:59;14.27;;;8.83;;
70953;SDS011;58618;47.490;8.736;2023-10-19T15:10:46;17.25;;;9.25;;
70953;SDS011;58618;47.490;8.736;2023-10-19T15:13:35;13.25;;;9.20;;
70953;SDS011;58618;47.490;8.736;2023-10-19T15:16:22;12.63;;;9.40;;
70953;SDS011;58618;47.490;8.736;2023-10-19T15:19:09;12.75;;;8.93;;
70953;SDS011;58618;47.490;8.736;2023-10-19T15:21:58;13.83;;;7.50;;
70953;SDS011;58618;47.490;8.736;2023-10-19T15:24:45;13.20;;;7.70;;
70953;SDS011;58618;47.490;8.736;2023-10-19T15:27:37;10.65;;;7.13;;
70953;SDS011;58618;47.490;8.736;2023-10-19T15:30:26;13.77;;;8.60;;
70953;SDS011;58618;47.490;8.736;2023-10-19T15:33:13;12.32;;;7.90;;
70953;SDS011;58618;47.490;8.736;2023-10-19T15:36:01;13.57;;;8.17;;
70953;SDS011;58618;47.490;8.736;2023-10-19T15:38:52;13.40;;;8.40;;
70953;SDS011;58618;47.490;8.736;2023-10-19T15:41:39;17.27;;;10.48;;
70953;SDS011;58618;47.490;8.736;2023-10-19T15:44:27;21.00;;;9.48;;
70953;SDS011;58618;47.490;8.736;2023-10-19T15:47:16;14.43;;;9.02;;
70953;SDS011;58618;47.490;8.736;2023-10-19T15:50:06;15.53;;;10.77;;
70953;SDS011;58618;47.490;8.736;2023-10-19T15:52:55;12.57;;;8.35;;
70953;SDS011;58618;47.490;8.736;2023-10-19T15:55:42;12.93;;;9.13;;
70953;SDS011;58618;47.490;8.736;2023-10-19T15:58:29;14.45;;;8.43;;
70953;SDS011;58618;47.490;8.736;2023-10-19T16:01:17;15.02;;;10.05;;
70953;SDS011;58618;47.490;8.736;2023-10-19T16:04:06;13.53;;;9.27;;
70953;SDS011;58618;47.490;8.736;2023-10-19T16:06:53;15.00;;;9.48;;
70953;SDS011;58618;47.490;8.736;2023-10-19T16:09:41;14.85;;;9.57;;
70953;SDS011;58618;47.490;8.736;2023-10-19T16:12:30;14.65;;;8.82;;
70953;SDS011;58618;47.490;8.736;2023-10-19T16:15:17;15.43;;;9.85;;
70953;SDS011;58618;47.490;8.736;2023-10-19T16:18:05;13.73;;;8.37;;
70953;SDS011;58618;47.490;8.736;2023-10-19T16:20:54;12.55;;;8.57;;
70953;SDS011;58618;47.490;8.736;2023-10-19T16:23:41;13.20;;;8.75;;
70953;SDS011;58618;47.490;8.736;2023-10-19T16:26:29;14.15;;;8.98;;
70953;SDS011;58618;47.490;8.736;2023-10-19T16:29:16;13.63;;;8.30;;
70953;SDS011;58618;47.490;8.736;2023-10-19T16:32:03;13.43;;;9.37;;
70953;SDS011;58618;47.490;8.736;2023-10-19T16:34:55;17.42;;;10.20;;
70953;SDS011;58618;47.490;8.736;2023-10-19T16:37:44;15.90;;;9.52;;